createdAt,value
2023-04-20T00:00:49.974Z,96927.00
2023-04-20T00:03:22.116Z,96922.89
2023-04-20T00:05:54.020Z,96918.38
2023-04-20T00:08:24.582Z,96916.11
2023-04-20T00:10:56.566Z,96914.23
2023-04-20T00:13:27.915Z,96914.40
2023-04-20T00:15:59.379Z,96911.99
2023-04-20T00:18:31.924Z,96916.50
2023-04-20T00:21:03.689Z,96913.77
2023-04-20T00:23:34.179Z,96918.71
2023-04-20T00:26:04.927Z,96915.89
2023-04-20T00:28:35.748Z,96914.36
2023-04-20T00:31:08.699Z,96912.23
2023-04-20T00:33:41.004Z,96910.95
2023-04-20T00:36:13.064Z,96910.86
2023-04-20T00:38:43.736Z,96911.08
2023-04-20T00:41:14.631Z,96910.35
2023-04-20T00:43:53.652Z,96912.31
2023-04-20T00:46:25.541Z,96907.39
2023-04-20T00:48:58.584Z,96906.10
2023-04-20T00:51:30.991Z,96903.26
2023-04-20T00:54:01.897Z,96903.40
2023-04-20T00:56:32.098Z,96903.26
2023-04-20T00:59:03.873Z,96903.61
2023-04-20T01:01:36.047Z,96903.52
2023-04-20T01:04:06.663Z,96908.55
2023-04-20T01:06:37.375Z,96908.52
2023-04-20T01:09:10.350Z,96907.61
2023-04-20T01:11:42.081Z,96907.87
2023-04-20T01:14:16.780Z,96907.42
2023-04-20T01:16:49.011Z,96910.11
2023-04-20T01:19:20.176Z,96905.52
2023-04-20T01:21:49.886Z,96910.98
2023-04-20T01:24:19.709Z,96908.47
2023-04-20T01:26:48.943Z,96910.00
2023-04-20T01:29:19.887Z,96908.89
2023-04-20T01:31:51.842Z,96909.66
2023-04-20T01:34:22.943Z,96904.02
2023-04-20T01:36:53.902Z,96905.88
2023-04-20T01:39:25.378Z,96908.75
2023-04-20T01:41:59.040Z,96911.98
2023-04-20T01:44:29.224Z,96910.61
2023-04-20T01:47:00.560Z,96910.30
2023-04-20T01:49:31.403Z,96909.73
2023-04-20T01:52:01.952Z,96908.65
2023-04-20T01:54:33.113Z,96907.66
2023-04-20T01:57:06.144Z,96906.74
2023-04-20T01:59:37.893Z,96908.34
2023-04-20T02:02:08.977Z,96908.04
2023-04-20T02:04:40.285Z,96908.91
2023-04-20T02:07:11.116Z,96904.78
2023-04-20T02:09:42.150Z,96903.71
2023-04-20T02:12:13.889Z,96903.15
2023-04-20T02:14:46.154Z,96903.58
2023-04-20T02:17:18.514Z,96902.71
2023-04-20T02:19:50.805Z,96905.83
2023-04-20T02:22:21.594Z,96905.11
2023-04-20T02:24:54.072Z,96914.29
2023-04-20T02:27:24.942Z,96912.30
2023-04-20T02:29:57.925Z,96913.05
2023-04-20T02:32:32.397Z,96913.44
2023-04-20T02:35:05.780Z,96913.79
2023-04-20T02:37:36.495Z,96910.53
2023-04-20T02:40:10.330Z,96907.89
2023-04-20T02:42:41.938Z,96909.11
2023-04-20T02:45:15.469Z,96904.35
2023-04-20T02:47:48.595Z,96902.02
2023-04-20T02:50:22.055Z,96900.38
2023-04-20T02:53:06.927Z,96899.97
2023-04-20T02:55:39.168Z,96900.38
2023-04-20T02:58:21.254Z,96898.02
2023-04-20T03:01:10.724Z,96896.76
2023-04-20T03:03:43.636Z,96893.27
2023-04-20T03:06:15.653Z,96895.54
2023-04-20T03:08:50.819Z,96897.73
2023-04-20T03:12:03.450Z,96905.91
2023-04-20T03:14:54.630Z,96906.15
2023-04-20T03:17:30.131Z,96911.01
2023-04-20T03:20:02.890Z,96910.52
2023-04-20T03:22:34.600Z,96911.16
2023-04-20T03:25:05.693Z,96913.58
2023-04-20T03:28:12.067Z,96913.59
2023-04-20T03:30:43.178Z,96910.55
2023-04-20T03:33:17.539Z,96909.45
2023-04-20T03:35:47.391Z,96904.84
2023-04-20T03:38:18.858Z,96908.61
2023-04-20T03:40:47.862Z,96909.77
2023-04-20T03:43:18.489Z,96913.72
2023-04-20T03:45:48.325Z,96916.55
2023-04-20T03:48:20.086Z,96918.24
2023-04-20T03:50:49.854Z,96921.39
2023-04-20T03:53:19.949Z,96919.98
2023-04-20T03:55:49.387Z,96922.14
2023-04-20T03:58:22.448Z,96926.81
2023-04-20T04:01:09.073Z,96930.19
2023-04-20T04:03:42.050Z,96929.41
2023-04-20T04:06:12.866Z,96926.80
2023-04-20T04:08:43.635Z,96929.23
2023-04-20T04:11:12.962Z,96928.45
2023-04-20T04:13:43.352Z,96926.56
2023-04-20T04:16:13.066Z,96930.63
2023-04-20T04:18:45.861Z,96934.89
2023-04-20T04:21:17.304Z,96935.85
2023-04-20T04:23:51.436Z,96934.48
2023-04-20T04:26:32.187Z,96934.24
2023-04-20T04:29:01.490Z,96940.19
2023-04-20T04:31:33.210Z,96940.49
2023-04-20T04:34:07.399Z,96936.56
2023-04-20T04:36:42.077Z,96939.61
2023-04-20T04:39:14.944Z,96939.34
2023-04-20T04:41:51.699Z,96937.89
2023-04-20T04:44:32.672Z,96932.68
2023-04-20T04:47:05.772Z,96926.52
2023-04-20T04:49:36.337Z,96930.10
2023-04-20T04:52:06.173Z,96928.20
2023-04-20T04:54:34.926Z,96928.68
2023-04-20T04:57:04.060Z,96927.76
2023-04-20T04:59:32.710Z,96932.84
2023-04-20T05:02:02.307Z,96935.47
2023-04-20T05:04:31.808Z,96943.48
2023-04-20T05:07:02.085Z,96953.32
2023-04-20T05:09:34.152Z,96954.16
2023-04-20T05:12:04.511Z,96957.23
2023-04-20T05:14:34.257Z,96959.46
2023-04-20T05:17:03.829Z,96958.98
2023-04-20T05:19:33.656Z,96952.45
2023-04-20T05:22:03.088Z,96956.11
2023-04-20T05:24:32.360Z,96958.07
2023-04-20T05:27:04.033Z,96961.50
2023-04-20T05:29:33.003Z,96961.16
2023-04-20T05:32:02.738Z,96963.25
2023-04-20T05:34:32.748Z,96969.65
2023-04-20T05:37:05.215Z,96971.36
2023-04-20T05:39:34.643Z,96976.91
2023-04-20T05:42:03.801Z,96981.84
2023-04-20T05:44:34.249Z,96981.29
2023-04-20T05:47:06.816Z,96982.44
2023-04-20T05:49:36.627Z,96981.71
2023-04-20T05:52:05.818Z,96982.23
2023-04-20T05:54:35.138Z,96976.16
2023-04-20T05:57:05.860Z,96980.07
2023-04-20T05:59:34.745Z,96979.95
2023-04-20T06:02:04.766Z,96972.23
2023-04-20T06:04:34.388Z,96965.61
2023-04-20T06:07:04.207Z,96966.34
2023-04-20T06:09:33.627Z,96963.83
2023-04-20T06:12:02.995Z,96965.89
2023-04-20T06:14:31.874Z,96966.38
2023-04-20T06:17:01.376Z,96969.30
2023-04-20T06:19:30.889Z,96970.00
2023-04-20T06:22:01.299Z,96965.87
2023-04-20T06:24:31.543Z,96962.69
2023-04-20T06:27:03.817Z,96959.23
2023-04-20T06:29:32.691Z,96958.74
2023-04-20T06:32:02.291Z,96955.33
2023-04-20T06:34:31.394Z,96954.89
2023-04-20T06:37:00.591Z,96955.00
2023-04-20T06:39:29.475Z,96955.09
2023-04-20T06:41:59.087Z,96952.65
2023-04-20T06:44:29.945Z,96949.09
2023-04-20T06:46:59.471Z,96950.30
2023-04-20T06:49:28.108Z,96948.60
2023-04-20T06:51:57.008Z,96945.15
2023-04-20T06:54:25.784Z,96942.36
2023-04-20T06:56:54.679Z,96942.15
2023-04-20T06:59:23.676Z,96940.27
2023-04-20T07:01:52.578Z,96937.93
2023-04-20T07:04:21.722Z,96940.02
2023-04-20T07:06:53.948Z,96939.84
2023-04-20T07:09:23.531Z,96938.04
2023-04-20T07:11:52.144Z,96938.58
2023-04-20T07:14:21.586Z,96934.16
2023-04-20T07:16:53.993Z,96933.19
2023-04-20T07:19:24.535Z,96933.33
2023-04-20T07:21:53.841Z,96928.89
2023-04-20T07:24:22.840Z,96925.35
2023-04-20T07:26:52.913Z,96928.39
2023-04-20T07:29:21.730Z,96927.35
2023-04-20T07:31:50.675Z,96929.77
2023-04-20T07:34:20.115Z,96929.27
2023-04-20T07:36:48.915Z,96927.61
2023-04-20T07:39:19.366Z,96930.52
2023-04-20T07:41:49.379Z,96924.85
2023-04-20T07:44:18.446Z,96923.02
2023-04-20T07:46:47.655Z,96924.15
2023-04-20T07:49:16.577Z,96918.09
2023-04-20T07:51:46.347Z,96922.60
2023-04-20T07:54:15.139Z,96929.72
2023-04-20T07:56:44.438Z,96925.34
2023-04-20T07:59:13.796Z,96925.42
2023-04-20T08:01:42.744Z,96920.46
2023-04-20T08:04:12.568Z,96925.95
2023-04-20T08:06:42.917Z,96923.61
2023-04-20T08:09:14.719Z,96920.75
2023-04-20T08:11:46.708Z,96922.48
2023-04-20T08:14:16.658Z,96917.85
2023-04-20T08:16:45.804Z,96920.95
2023-04-20T08:21:44.301Z,96920.83
2023-04-20T08:24:14.347Z,96922.03
2023-04-20T08:26:44.021Z,96925.86
2023-04-20T08:29:13.230Z,96924.91
2023-04-20T08:31:43.592Z,96922.61
2023-04-20T08:34:13.368Z,96919.23
2023-04-20T08:36:42.079Z,96919.52
2023-04-20T08:39:14.150Z,96914.89
2023-04-20T08:41:43.179Z,96919.67
2023-04-20T08:44:13.138Z,96916.66
2023-04-20T08:46:47.468Z,96917.20
2023-04-20T08:49:18.194Z,96906.00
2023-04-20T08:51:48.401Z,96910.71
2023-04-20T08:54:17.988Z,96908.59
2023-04-20T08:56:48.070Z,96910.96
2023-04-20T08:59:17.425Z,96910.66
2023-04-20T09:01:46.788Z,96909.39
2023-04-20T09:04:21.562Z,96907.81
2023-04-20T09:06:53.342Z,96909.23
2023-04-20T09:09:24.352Z,96911.77
2023-04-20T09:12:05.512Z,96908.35
2023-04-20T09:14:47.528Z,96905.39
2023-04-20T09:17:18.237Z,96901.17
2023-04-20T09:19:54.085Z,96902.77
2023-04-20T09:22:34.513Z,96898.15
2023-04-20T09:25:16.878Z,96899.95
2023-04-20T09:28:00.117Z,96896.98
2023-04-20T09:30:46.599Z,96896.23
2023-04-20T09:33:16.008Z,96895.52
2023-04-20T09:35:45.813Z,96897.04
2023-04-20T09:38:29.958Z,96903.73
2023-04-20T09:41:02.219Z,96909.60
2023-04-20T09:43:31.752Z,96907.52
2023-04-20T09:46:00.560Z,96904.31
2023-04-20T09:48:32.047Z,96902.27
2023-04-20T09:51:03.387Z,96897.02
2023-04-20T09:53:33.602Z,96896.38
2023-04-20T09:56:03.561Z,96885.59
2023-04-20T09:58:34.740Z,96885.95
2023-04-20T10:01:03.652Z,96883.34
2023-04-20T10:03:33.080Z,96875.61
2023-04-20T10:06:02.598Z,96874.30
2023-04-20T10:08:42.309Z,96874.69
2023-04-20T10:11:11.460Z,96874.10
2023-04-20T10:13:40.642Z,96873.29
2023-04-20T10:16:18.853Z,96871.86
2023-04-20T10:18:58.991Z,96865.58
2023-04-20T10:21:29.446Z,96862.52
2023-04-20T10:24:01.314Z,96854.47
2023-04-20T10:26:38.196Z,96854.64
2023-04-20T10:29:07.368Z,96857.30
2023-04-20T10:31:39.277Z,96860.60
2023-04-20T10:34:09.547Z,96861.27
2023-04-20T10:36:39.718Z,96869.11
2023-04-20T10:39:19.341Z,96871.46
2023-04-20T10:42:04.372Z,96877.69
2023-04-20T10:44:35.726Z,96876.61
2023-04-20T10:47:05.347Z,96880.89
2023-04-20T10:49:34.812Z,96882.36
2023-04-20T10:52:03.644Z,96887.30
2023-04-20T10:54:40.067Z,96889.87
2023-04-20T10:57:09.498Z,96886.58
2023-04-20T10:59:39.514Z,96883.59
2023-04-20T11:02:08.770Z,96881.75
2023-04-20T11:04:37.746Z,96889.41
2023-04-20T11:07:13.681Z,96890.72
2023-04-20T11:09:45.104Z,96892.27
2023-04-20T11:12:15.125Z,96893.23
2023-04-20T11:14:58.229Z,96891.20
2023-04-20T11:17:39.377Z,96893.09
2023-04-20T11:20:14.539Z,96889.10
2023-04-20T11:22:44.388Z,96889.73
2023-04-20T11:25:13.271Z,96884.70
2023-04-20T11:27:43.500Z,96885.72
2023-04-20T11:30:12.561Z,96882.06
2023-04-20T11:32:41.673Z,96880.11
2023-04-20T11:35:11.428Z,96873.23
2023-04-20T11:37:54.699Z,96877.70
2023-04-20T11:40:23.813Z,96872.52
2023-04-20T11:42:53.158Z,96879.60
2023-04-20T11:45:24.164Z,96878.39
2023-04-20T11:47:53.523Z,96878.17
2023-04-20T11:50:23.474Z,96882.23
2023-04-20T11:52:52.257Z,96874.19
2023-04-20T11:55:21.247Z,96872.02
2023-04-20T11:57:50.661Z,96872.68
2023-04-20T12:00:20.918Z,96870.34
2023-04-20T12:02:49.977Z,96868.13
2023-04-20T12:05:18.905Z,96869.38
2023-04-20T12:07:48.054Z,96870.41
2023-04-20T12:10:16.755Z,96869.27
2023-04-20T12:12:45.559Z,96875.05
2023-04-20T12:15:14.420Z,96868.89
2023-04-20T12:17:43.729Z,96866.64
2023-04-20T12:20:13.086Z,96865.08
2023-04-20T12:22:42.019Z,96862.43
2023-04-20T12:25:11.137Z,96861.15
2023-04-20T12:27:40.107Z,96856.15
2023-04-20T12:30:09.717Z,96853.54
2023-04-20T12:32:38.317Z,96852.80
2023-04-20T12:35:08.897Z,96850.38
2023-04-20T12:37:37.611Z,96850.73
2023-04-20T12:40:08.775Z,96849.77
2023-04-20T12:42:37.442Z,96848.37
2023-04-20T12:45:07.505Z,96850.67
2023-04-20T12:47:36.054Z,96848.42
2023-04-20T12:50:07.706Z,96851.98
2023-04-20T12:52:36.580Z,96847.66
2023-04-20T12:55:06.184Z,96848.84
2023-04-20T12:57:34.769Z,96847.73
2023-04-20T13:00:05.632Z,96847.65
2023-04-20T13:02:34.372Z,96850.76
2023-04-20T13:05:04.002Z,96846.89
2023-04-20T13:07:33.099Z,96845.20
2023-04-20T13:10:01.996Z,96844.83
2023-04-20T13:12:30.782Z,96843.36
2023-04-20T13:15:00.291Z,96839.98
2023-04-20T13:17:29.013Z,96837.17
2023-04-20T13:19:57.861Z,96833.73
2023-04-20T13:22:26.640Z,96833.84
2023-04-20T13:24:55.230Z,96833.38
2023-04-20T13:27:24.018Z,96834.67
2023-04-20T13:29:52.804Z,96833.66
2023-04-20T13:32:21.900Z,96833.40
2023-04-20T13:34:50.992Z,96834.59
2023-04-20T13:37:20.502Z,96832.20
2023-04-20T13:39:48.991Z,96833.17
2023-04-20T13:42:17.870Z,96833.21
2023-04-20T13:44:46.561Z,96827.40
2023-04-20T13:47:15.339Z,96831.67
2023-04-20T13:49:44.334Z,96825.70
2023-04-20T13:52:13.676Z,96832.89
2023-04-20T13:54:42.328Z,96831.89
2023-04-20T13:57:11.731Z,96825.91
2023-04-20T13:59:41.439Z,96827.46
2023-04-20T14:02:11.148Z,96829.50
2023-04-20T14:04:40.129Z,96825.80
2023-04-20T14:07:08.931Z,96828.17
2023-04-20T14:09:37.712Z,96830.52
2023-04-20T14:12:07.133Z,96827.80
2023-04-20T14:14:35.806Z,96835.94
2023-04-20T14:17:04.790Z,96834.17
2023-04-20T14:19:33.505Z,96835.83
2023-04-20T14:22:02.210Z,96836.42
2023-04-20T14:24:31.262Z,96839.68
2023-04-20T14:27:00.664Z,96838.61
2023-04-20T14:29:29.866Z,96840.08
2023-04-20T14:31:58.580Z,96841.73
2023-04-20T14:34:27.444Z,96839.16
2023-04-20T14:36:56.530Z,96835.19
2023-04-20T14:39:25.851Z,96834.70
2023-04-20T14:41:56.477Z,96836.70
2023-04-20T14:44:25.155Z,96831.78
2023-04-20T14:46:53.951Z,96830.52
2023-04-20T14:49:23.745Z,96835.72
2023-04-20T14:51:52.436Z,96837.92
2023-04-20T14:54:21.432Z,96840.17
2023-04-20T14:56:50.214Z,96841.34
2023-04-20T14:59:19.205Z,96838.48
2023-04-20T15:01:59.104Z,96837.50
2023-04-20T15:04:31.200Z,96836.10
2023-04-20T15:07:00.109Z,96837.01
2023-04-20T15:09:29.213Z,96838.36
2023-04-20T15:11:59.331Z,96835.81
2023-04-20T15:14:28.787Z,96837.78
2023-04-20T15:16:57.508Z,96838.10
2023-04-20T15:19:26.619Z,96840.09
2023-04-20T15:21:55.922Z,96838.90
2023-04-20T15:24:24.605Z,96837.90
2023-04-20T15:26:53.509Z,96838.55
2023-04-20T15:29:22.172Z,96839.56
2023-04-20T15:31:51.049Z,96838.30
2023-04-20T15:34:20.531Z,96842.78
2023-04-20T15:36:49.565Z,96843.27
2023-04-20T15:39:18.559Z,96839.49
2023-04-20T15:41:47.233Z,96837.81
2023-04-20T15:44:16.338Z,96839.30
2023-04-20T15:46:46.192Z,96840.33
2023-04-20T15:49:15.551Z,96837.07
2023-04-20T15:51:44.458Z,96840.31
2023-04-20T15:54:14.465Z,96840.66
2023-04-20T15:56:43.347Z,96843.75
2023-04-20T15:59:11.928Z,96843.89
2023-04-20T16:01:40.786Z,96841.11
2023-04-20T16:04:10.138Z,96838.48
2023-04-20T16:06:38.908Z,96835.98
2023-04-20T16:09:07.903Z,96834.46
2023-04-20T16:11:38.635Z,96832.27
2023-04-20T16:14:07.729Z,96834.39
2023-04-20T16:16:36.307Z,96836.23
2023-04-20T16:19:05.212Z,96836.96
2023-04-20T16:21:34.661Z,96839.48
2023-04-20T16:24:03.297Z,96843.48
2023-04-20T16:26:32.075Z,96841.98
2023-04-20T16:29:00.865Z,96841.52
2023-04-20T16:31:30.252Z,96845.39
2023-04-20T16:33:59.171Z,96843.00
2023-04-20T16:36:28.052Z,96844.11
2023-04-20T16:38:57.357Z,96847.73
2023-04-20T16:41:27.407Z,96845.36
2023-04-20T16:43:55.851Z,96848.45
2023-04-20T16:46:25.102Z,96848.09
2023-04-20T16:48:54.957Z,96849.73
2023-04-20T16:51:23.654Z,96854.48
2023-04-20T16:53:53.235Z,96852.71
2023-04-20T16:56:21.833Z,96853.67
2023-04-20T16:58:51.244Z,96856.30
2023-04-20T17:01:19.970Z,96855.55
2023-04-20T17:03:50.294Z,96859.27
2023-04-20T17:06:19.547Z,96859.45
2023-04-20T17:08:49.677Z,96861.46
2023-04-20T17:11:19.788Z,96863.04
2023-04-20T17:13:48.780Z,96867.30
2023-04-20T17:16:17.478Z,96866.92
2023-04-20T17:18:46.568Z,96863.23
2023-04-20T17:21:15.262Z,96866.38
2023-04-20T17:23:44.246Z,96867.94
2023-04-20T17:26:13.134Z,96872.82
2023-04-20T17:28:41.705Z,96879.83
2023-04-20T17:31:11.217Z,96880.36
2023-04-20T17:33:39.700Z,96882.83
2023-04-20T17:36:08.694Z,96885.80
2023-04-20T17:38:38.714Z,96887.06
2023-04-20T17:41:07.079Z,96893.77
2023-04-20T17:43:37.305Z,96890.91
2023-04-20T17:46:05.937Z,96897.27
2023-04-20T17:48:34.716Z,96894.88
2023-04-20T17:51:03.664Z,96899.37
2023-04-20T17:53:32.452Z,96898.94
2023-04-20T17:56:00.947Z,96897.04
2023-04-20T17:58:29.619Z,96902.02
2023-04-20T18:00:58.864Z,96906.46
2023-04-20T18:03:28.570Z,96910.19
2023-04-20T18:05:57.522Z,96916.52
2023-04-20T18:08:26.415Z,96914.80
2023-04-20T18:10:55.002Z,96917.19
2023-04-20T18:13:23.583Z,96916.77
2023-04-20T18:15:52.504Z,96922.88
2023-04-20T18:18:21.985Z,96920.36
2023-04-20T18:20:50.554Z,96920.76
2023-04-20T18:23:19.449Z,96922.48
2023-04-20T18:25:48.032Z,96919.36
2023-04-20T18:28:16.931Z,96923.70
2023-04-20T18:30:46.339Z,96924.26
2023-04-20T18:33:15.928Z,96926.86
2023-04-20T18:35:45.536Z,96929.38
2023-04-20T18:38:14.735Z,96931.64
2023-04-20T18:40:43.315Z,96932.58
2023-04-20T18:43:12.214Z,96936.25
2023-04-20T18:45:41.307Z,96933.31
2023-04-20T18:48:10.017Z,96936.67
2023-04-20T18:50:38.896Z,96943.35
2023-04-20T18:53:08.133Z,96940.98
2023-04-20T18:55:38.199Z,96941.33
2023-04-20T18:58:06.882Z,96945.53
2023-04-20T19:00:35.685Z,96946.73
2023-04-20T19:03:06.321Z,96948.17
2023-04-20T19:05:35.398Z,96948.42
2023-04-20T19:08:04.295Z,96951.22
2023-04-20T19:10:33.081Z,96949.23
2023-04-20T19:13:02.078Z,96950.48
2023-04-20T19:15:30.651Z,96949.50
2023-04-20T19:17:59.373Z,96950.83
2023-04-20T19:20:28.440Z,96945.61
2023-04-20T19:22:56.912Z,96943.56
2023-04-20T19:25:25.696Z,96940.05
2023-04-20T19:27:54.513Z,96938.95
2023-04-20T19:30:23.377Z,96938.34
2023-04-20T19:32:52.197Z,96934.84
2023-04-20T19:35:21.670Z,96933.98
2023-04-20T19:37:50.767Z,96938.46
2023-04-20T19:40:22.549Z,96937.04
2023-04-20T19:42:51.623Z,96938.10
2023-04-20T19:45:20.716Z,96943.96
2023-04-20T19:47:49.673Z,96943.91
2023-04-20T19:50:18.297Z,96942.89
2023-04-20T19:52:47.287Z,96940.68
2023-04-20T19:55:16.171Z,96935.44
2023-04-20T19:57:45.169Z,96936.26
2023-04-20T20:00:14.968Z,96935.01
2023-04-20T20:02:44.110Z,96933.16
2023-04-20T20:05:13.986Z,96930.98
2023-04-20T20:07:43.284Z,96930.02
2023-04-20T20:10:12.199Z,96927.00
2023-04-20T20:12:41.276Z,96927.52
2023-04-20T20:15:10.171Z,96929.18
2023-04-20T20:17:38.982Z,96935.10
2023-04-20T20:20:08.718Z,96934.22
2023-04-20T20:22:37.662Z,96936.28
2023-04-20T20:25:07.878Z,96936.79
2023-04-20T20:27:36.958Z,96937.48
2023-04-20T20:30:07.204Z,96936.55
2023-04-20T20:32:36.514Z,96939.60
2023-04-20T20:35:07.387Z,96944.88
2023-04-20T20:37:37.033Z,96949.93
2023-04-20T20:40:12.383Z,96946.73
2023-04-20T20:42:46.301Z,96947.14
2023-04-20T20:45:15.489Z,96945.67
2023-04-20T20:47:45.646Z,96953.91
2023-04-20T20:50:15.847Z,96950.54
2023-04-20T20:52:44.411Z,96948.35
2023-04-20T20:55:13.302Z,96950.02
2023-04-20T20:57:42.323Z,96947.62
2023-04-20T21:00:12.199Z,96944.98
2023-04-20T21:02:41.166Z,96944.80
2023-04-20T21:05:10.758Z,96943.67
2023-04-20T21:07:40.418Z,96943.60
2023-04-20T21:10:12.143Z,96942.30
2023-04-20T21:12:41.068Z,96940.66
2023-04-20T21:15:11.711Z,96938.91
2023-04-20T21:17:41.561Z,96942.41
2023-04-20T21:20:11.802Z,96943.93
2023-04-20T21:22:41.480Z,96943.16
2023-04-20T21:25:10.639Z,96946.91
2023-04-20T21:27:39.624Z,96948.67
2023-04-20T21:30:09.556Z,96949.23
2023-04-20T21:32:38.595Z,96954.30
2023-04-20T21:35:08.450Z,96950.92
2023-04-20T21:37:38.069Z,96951.75
2023-04-20T21:40:08.003Z,96951.96
2023-04-20T21:42:36.862Z,96950.11
2023-04-20T21:45:06.475Z,96951.73
2023-04-20T21:47:36.439Z,96952.08
2023-04-20T21:50:06.128Z,96953.69
2023-04-20T21:52:35.507Z,96948.48
2023-04-20T21:55:05.721Z,96949.89
2023-04-20T21:57:34.829Z,96955.79
2023-04-20T22:00:04.624Z,96948.84
2023-04-20T22:02:43.777Z,96952.79
2023-04-20T22:05:13.810Z,96952.95
2023-04-20T22:07:43.476Z,96956.64
2023-04-20T22:10:13.192Z,96948.84
2023-04-20T22:12:43.349Z,96949.87
2023-04-20T22:15:15.819Z,96950.16
2023-04-20T22:17:48.088Z,96948.80
2023-04-20T22:20:19.640Z,96950.88
2023-04-20T22:22:50.286Z,96950.48
2023-04-20T22:25:19.552Z,96951.23
2023-04-20T22:27:49.533Z,96955.52
2023-04-20T22:30:19.632Z,96958.74
2023-04-20T22:32:49.698Z,96956.65
2023-04-20T22:35:20.255Z,96958.23
2023-04-20T22:37:50.418Z,96958.92
2023-04-20T22:40:20.259Z,96958.34
2023-04-20T22:42:51.680Z,96958.19
2023-04-20T22:45:22.365Z,96953.19
2023-04-20T22:47:52.048Z,96954.19
2023-04-20T22:50:21.228Z,96956.47
2023-04-20T22:52:51.441Z,96958.44
2023-04-20T22:55:21.513Z,96962.06
2023-04-20T22:57:52.154Z,96961.59
2023-04-20T23:00:23.226Z,96959.21
2023-04-20T23:02:53.615Z,96963.73
2023-04-20T23:05:23.832Z,96960.88
2023-04-20T23:07:56.320Z,96961.20
2023-04-20T23:10:29.926Z,96956.22
2023-04-20T23:13:01.226Z,96955.01
2023-04-20T23:15:30.748Z,96954.45
2023-04-20T23:18:00.820Z,96953.83
2023-04-20T23:20:30.379Z,96956.32
2023-04-20T23:23:00.197Z,96954.01
2023-04-20T23:25:29.469Z,96957.77
2023-04-20T23:27:58.995Z,96957.27
2023-04-20T23:30:29.193Z,96955.70
2023-04-20T23:32:59.093Z,96954.58
2023-04-20T23:35:30.363Z,96954.83
2023-04-20T23:38:00.779Z,96956.92
2023-04-20T23:40:30.608Z,96950.09
2023-04-20T23:43:01.239Z,96955.29
2023-04-20T23:45:31.487Z,96954.20
2023-04-20T23:48:01.974Z,96952.08
2023-04-20T23:50:32.310Z,96945.45
2023-04-20T23:53:03.083Z,96943.69
2023-04-20T23:55:33.453Z,96944.48
2023-04-20T23:58:02.861Z,96941.13
